Time;durP1;ratioP1;P1;durP2;ratioP2;P2;SDS_P1;SDS_P2;PMS_P1;PMS_P2;Temp;Humidity;BMP_temperature;BMP_pressure;BME280_temperature;BME280_humidity;BME280_pressure;Samples;Min_cycle;Max_cycle;Signal;HPM_P1;HPM_P2
2022/03/20 00:00:17;;;;;;;5.93;4.18;;;18.20;37.20;17.20;103179.00;;;;5076689;28;20040;-63
2022/03/20 00:03:06;;;;;;;6.72;4.38;;;18.20;37.20;17.20;103178.00;;;;5063253;28;20052;-63
2022/03/20 00:05:52;;;;;;;7.20;4.15;;;18.20;37.30;17.20;103173.00;;;;5059389;28;20051;-63
2022/03/20 00:08:38;;;;;;;5.90;3.75;;;18.20;37.30;17.20;103166.00;;;;5075750;28;20040;-63
2022/03/20 00:11:27;;;;;;;5.78;3.58;;;18.20;37.40;17.20;103157.00;;;;5081220;28;20059;-69
2022/03/20 00:14:13;;;;;;;5.30;3.38;;;18.20;37.40;17.20;103169.00;;;;5079715;28;20032;-69
2022/03/20 00:16:59;;;;;;;6.05;3.72;;;18.10;37.40;17.20;103152.00;;;;5081100;28;20481;-69
2022/03/20 00:19:46;;;;;;;4.80;3.30;;;18.20;37.40;17.20;103155.00;;;;5069967;28;20045;-69
2022/03/20 00:22:34;;;;;;;6.82;3.28;;;18.10;37.40;17.20;103145.00;;;;5064563;28;20127;-69
2022/03/20 00:25:20;;;;;;;3.75;2.67;;;18.10;37.40;17.20;103138.00;;;;5054639;28;20052;-69
2022/03/20 00:28:06;;;;;;;3.63;2.80;;;18.10;37.50;17.20;103129.00;;;;5063707;28;20808;-69
2022/03/20 00:30:53;;;;;;;5.18;2.88;;;18.10;37.50;17.20;103130.00;;;;5064688;28;20076;-69
2022/03/20 00:33:39;;;;;;;5.55;2.90;;;18.10;37.50;17.20;103123.00;;;;5057028;28;20115;-69
2022/03/20 00:36:25;;;;;;;6.10;3.13;;;18.10;37.60;17.20;103130.00;;;;5055345;28;20498;-69
2022/03/20 00:39:11;;;;;;;4.57;2.78;;;18.10;38.30;17.20;103126.00;;;;5043842;28;20882;-69
2022/03/20 00:41:57;;;;;;;3.83;2.40;;;18.10;37.70;17.20;103117.00;;;;5056310;28;20040;-69
2022/03/20 00:44:43;;;;;;;4.03;2.38;;;18.10;37.70;17.20;103115.00;;;;5052067;28;20040;-69
2022/03/20 00:47:29;;;;;;;4.55;2.63;;;18.10;37.70;17.20;103112.00;;;;5066408;28;20040;-69
2022/03/20 00:50:15;;;;;;;5.03;2.30;;;18.10;37.80;17.20;103107.00;;;;5059167;28;20044;-68
2022/03/20 00:53:02;;;;;;;4.47;2.05;;;18.10;37.80;17.20;103105.00;;;;5057298;28;20470;-69
2022/03/20 00:55:48;;;;;;;4.38;2.60;;;18.10;37.80;17.20;103108.00;;;;5058039;28;20497;-69
2022/03/20 00:58:34;;;;;;;5.18;2.50;;;18.10;37.80;17.20;103097.00;;;;5064540;28;20040;-69
2022/03/20 01:01:20;;;;;;;4.28;2.60;;;18.10;37.80;17.20;103103.00;;;;5062414;28;20049;-69
2022/03/20 01:04:06;;;;;;;3.80;2.30;;;18.10;37.80;17.20;103095.00;;;;5034406;28;20040;-68
2022/03/20 01:06:55;;;;;;;4.30;2.38;;;18.10;37.80;17.20;103088.00;;;;5061259;28;20413;-69
2022/03/20 01:09:41;;;;;;;5.68;2.35;;;18.00;37.80;17.10;103069.00;;;;5044724;28;20052;-69
2022/03/20 01:12:28;;;;;;;3.80;2.47;;;18.00;37.80;17.10;103071.00;;;;5062930;28;20044;-69
2022/03/20 01:15:15;;;;;;;3.13;2.22;;;18.00;37.80;17.10;103068.00;;;;5060975;28;20040;-69
2022/03/20 01:18:02;;;;;;;5.10;2.70;;;18.00;37.80;17.10;103075.00;;;;5057891;28;20036;-69
2022/03/20 01:20:48;;;;;;;4.47;2.67;;;18.00;37.80;17.10;103056.00;;;;5056782;28;20175;-69
2022/03/20 01:23:34;;;;;;;5.10;2.78;;;18.00;37.80;17.10;103059.00;;;;5055430;28;20048;-69
2022/03/20 01:26:20;;;;;;;3.75;2.50;;;18.00;37.90;17.10;103061.00;;;;5044845;28;20071;-69
2022/03/20 01:29:06;;;;;;;6.25;3.25;;;18.00;37.80;17.10;103059.00;;;;5050108;28;20048;-69
2022/03/20 01:31:52;;;;;;;3.92;3.00;;;18.00;37.80;17.10;103060.00;;;;5062475;28;20391;-69
2022/03/20 01:34:39;;;;;;;3.85;2.97;;;18.00;37.70;17.10;103047.00;;;;5062907;28;20043;-69
2022/03/20 01:37:25;;;;;;;8.07;3.10;;;18.00;37.70;17.10;103047.00;;;;5045893;28;20044;-69
2022/03/20 01:40:11;;;;;;;4.32;2.90;;;18.00;37.70;17.10;103037.00;;;;5063942;28;20534;-69
2022/03/20 01:42:57;;;;;;;5.15;2.65;;;18.00;37.70;17.10;103034.00;;;;5064222;28;20417;-69
2022/03/20 01:45:43;;;;;;;5.85;3.15;;;18.00;37.70;17.10;103027.00;;;;5061491;28;20041;-69
2022/03/20 01:48:29;;;;;;;5.53;2.97;;;18.00;37.70;17.10;103020.00;;;;5074481;28;20044;-69
2022/03/20 01:51:15;;;;;;;4.78;2.78;;;18.00;37.80;17.10;103018.00;;;;5061015;28;20075;-69
2022/03/20 01:54:01;;;;;;;5.03;2.80;;;18.00;37.70;17.10;103012.00;;;;5063288;28;20045;-69
2022/03/20 01:56:49;;;;;;;4.10;3.20;;;17.90;37.60;17.10;103018.00;;;;5061913;28;20451;-69
2022/03/20 01:59:36;;;;;;;4.88;2.88;;;18.00;37.60;17.10;103004.00;;;;5046945;28;20032;-69
2022/03/20 02:02:22;;;;;;;4.30;2.95;;;17.90;37.60;17.10;103006.00;;;;5060231;28;20449;-69
2022/03/20 02:05:12;;;;;;;5.28;3.30;;;18.00;37.60;17.00;102989.00;;;;5041253;28;20110;-69
2022/03/20 02:07:59;;;;;;;4.68;3.00;;;18.00;37.70;17.00;102993.00;;;;5046603;28;20067;-69
2022/03/20 02:10:46;;;;;;;5.50;3.10;;;18.00;37.70;17.00;102983.00;;;;5046915;28;20134;-69
2022/03/20 02:13:32;;;;;;;6.68;3.42;;;18.00;37.60;17.00;103001.00;;;;5046908;28;20040;-69
2022/03/20 02:16:18;;;;;;;3.90;2.95;;;17.90;37.60;17.00;102992.00;;;;5063597;28;20045;-69
2022/03/20 02:19:09;;;;;;;4.50;3.03;;;17.90;37.60;17.00;102983.00;;;;5047221;28;20037;-69
2022/03/20 02:21:55;;;;;;;4.30;2.80;;;17.90;37.50;17.00;102980.00;;;;5043647;28;20391;-69
2022/03/20 02:24:44;;;;;;;9.70;3.53;;;17.90;37.50;17.00;102966.00;;;;5050480;28;20044;-69
2022/03/20 02:27:32;;;;;;;5.35;2.97;;;18.00;38.30;17.00;102965.00;;;;5057481;28;20052;-69
2022/03/20 02:30:18;;;;;;;6.25;4.20;;;17.90;37.60;17.00;102963.00;;;;5051431;28;20110;-69
2022/03/20 02:33:04;;;;;;;4.50;3.08;;;17.90;37.50;17.00;102959.00;;;;5060792;28;20025;-69
2022/03/20 02:35:51;;;;;;;4.57;3.05;;;17.90;37.50;17.00;102956.00;;;;5063364;28;20037;-69
2022/03/20 02:38:37;;;;;;;8.82;3.88;;;17.90;37.60;17.00;102961.00;;;;5045418;28;20493;-69
2022/03/20 02:41:23;;;;;;;5.90;3.40;;;17.90;37.50;17.00;102956.00;;;;5052970;28;20102;-69
2022/03/20 02:44:09;;;;;;;5.32;3.40;;;17.90;37.50;17.00;102943.00;;;;5060965;28;20071;-69
2022/03/20 02:46:56;;;;;;;4.45;3.10;;;17.90;37.50;17.00;102936.00;;;;5056021;28;20383;-69
2022/03/20 02:49:42;;;;;;;6.22;3.58;;;17.90;37.40;17.00;102936.00;;;;5063424;28;20040;-69
2022/03/20 02:52:30;;;;;;;7.50;3.92;;;17.90;37.40;17.00;102931.00;;;;5048695;28;20041;-69
2022/03/20 02:55:22;;;;;;;5.05;3.28;;;17.90;37.40;17.00;102917.00;;;;5044094;28;20099;-69
2022/03/20 02:58:12;;;;;;;7.10;3.83;;;17.90;37.40;17.00;102923.00;;;;5043260;28;20044;-69
2022/03/20 03:00:58;;;;;;;6.50;3.63;;;17.90;37.30;17.00;102917.00;;;;5059276;28;20120;-69
2022/03/20 03:03:45;;;;;;;5.05;3.78;;;17.90;37.40;17.00;102905.00;;;;5058891;28;20099;-69
2022/03/20 03:06:31;;;;;;;6.03;3.25;;;17.90;37.40;17.00;102909.00;;;;5045117;28;20079;-69
2022/03/20 03:12:22;;;;;;;6.75;3.90;;;17.90;37.30;17.00;102912.00;;;;5055101;28;20047;-69
2022/03/20 03:15:21;;;;;;;5.35;3.78;;;17.90;37.30;16.90;102905.00;;;;5059882;28;20041;-69
2022/03/20 03:18:07;;;;;;;;;;;17.80;37.20;16.90;102910.00;;;;5061441;28;20665;-69
2022/03/20 03:20:53;;;;;;;5.63;3.90;;;17.90;37.50;16.90;102899.00;;;;5054827;28;19912;-69
2022/03/20 03:23:39;;;;;;;7.00;4.18;;;17.80;37.20;16.90;102908.00;;;;5053496;28;20040;-69
2022/03/20 03:26:25;;;;;;;7.22;4.20;;;17.90;37.20;16.90;102900.00;;;;5056616;28;20071;-69
2022/03/20 03:29:11;;;;;;;5.10;3.60;;;17.80;37.10;16.90;102901.00;;;;5056518;28;20044;-69
2022/03/20 03:31:57;;;;;;;4.85;3.67;;;17.80;37.20;16.90;102901.00;;;;5057912;28;20363;-69
2022/03/20 03:37:47;;;;;;;6.82;4.57;;;17.80;37.10;16.90;102882.00;;;;5058139;28;20028;-69
2022/03/20 03:40:34;;;;;;;6.88;4.50;;;17.80;37.10;16.90;102880.00;;;;5057378;28;20155;-69
2022/03/20 03:43:20;;;;;;;7.13;4.40;;;17.80;37.10;16.90;102886.00;;;;5062279;28;20036;-69
2022/03/20 03:46:06;;;;;;;7.88;4.55;;;17.80;37.10;16.90;102882.00;;;;5046472;28;20494;-69
2022/03/20 03:48:52;;;;;;;7.63;4.70;;;17.80;37.10;16.90;102871.00;;;;5042348;28;20048;-69
2022/03/20 03:51:38;;;;;;;5.68;4.22;;;17.80;37.10;16.90;102870.00;;;;5060624;28;20214;-69
2022/03/20 03:54:24;;;;;;;5.78;4.35;;;17.90;37.10;16.90;102860.00;;;;5044051;28;20048;-69
2022/03/20 03:57:10;;;;;;;7.35;4.05;;;17.70;37.10;16.90;102866.00;;;;5054446;28;20854;-69
2022/03/20 03:59:56;;;;;;;7.57;4.60;;;17.80;37.10;16.90;102852.00;;;;5042784;28;20041;-69
2022/03/20 04:02:42;;;;;;;6.40;4.30;;;17.80;37.00;16.90;102839.00;;;;5055846;28;20048;-69
2022/03/20 04:05:29;;;;;;;5.65;4.57;;;17.70;37.00;16.90;102841.00;;;;5052349;28;20418;-69
2022/03/20 04:08:16;;;;;;;7.07;4.65;;;17.80;37.00;16.90;102833.00;;;;5064035;28;20044;-69
2022/03/20 04:11:02;;;;;;;7.47;4.40;;;17.80;37.00;16.90;102833.00;;;;5057948;28;20048;-69
2022/03/20 04:13:48;;;;;;;6.13;4.45;;;17.70;36.90;16.90;102826.00;;;;5038415;28;20079;-69
2022/03/20 04:16:35;;;;;;;7.75;4.97;;;17.80;37.00;16.90;102835.00;;;;5044851;28;20042;-69
2022/03/20 04:19:21;;;;;;;8.90;4.93;;;17.70;36.90;16.90;102832.00;;;;5062414;28;20056;-69
2022/03/20 04:22:07;;;;;;;7.68;4.78;;;17.70;36.80;16.90;102832.00;;;;5055284;28;20578;-69
2022/03/20 04:24:53;;;;;;;10.30;5.60;;;17.70;36.80;16.80;102840.00;;;;5060067;28;20365;-69
2022/03/20 04:27:40;;;;;;;7.55;4.93;;;17.80;36.90;16.80;102821.00;;;;5055121;28;20409;-69
2022/03/20 04:30:26;;;;;;;6.22;4.68;;;17.70;36.80;16.80;102818.00;;;;5060319;28;20568;-69
2022/03/20 04:33:12;;;;;;;9.82;5.25;;;17.70;36.80;16.80;102820.00;;;;5061349;28;20099;-69
2022/03/20 04:35:58;;;;;;;6.65;4.78;;;17.70;36.80;16.80;102821.00;;;;5049618;28;20116;-69
2022/03/20 04:38:44;;;;;;;9.10;5.47;;;17.70;36.80;16.80;102821.00;;;;5065266;28;20041;-69
2022/03/20 04:41:31;;;;;;;9.30;5.53;;;17.70;36.70;16.80;102812.00;;;;5055953;28;20048;-69
2022/03/20 04:44:17;;;;;;;7.05;5.28;;;17.70;36.70;16.80;102800.00;;;;5063256;28;20056;-69
2022/03/20 04:47:04;;;;;;;9.15;5.50;;;17.70;36.70;16.80;102802.00;;;;5056225;28;20037;-69
2022/03/20 04:59:03;;;;;;;5.95;4.63;;;17.70;36.60;16.80;102807.00;;;;5056823;28;20029;-69
2022/03/20 05:01:50;;;;;;;9.05;5.72;;;17.70;36.60;16.80;102797.00;;;;5062300;28;20390;-69
2022/03/20 05:04:37;;;;;;;7.40;5.63;;;17.70;36.60;16.80;102803.00;;;;5042768;28;20045;-69
2022/03/20 05:07:23;;;;;;;7.78;5.18;;;17.70;36.60;16.80;102786.00;;;;5065018;28;20047;-69
2022/03/20 05:13:19;;;;;;;9.18;5.35;;;17.70;36.60;16.80;102783.00;;;;5074114;28;20128;-69
2022/03/20 05:16:05;;;;;;;8.55;5.45;;;17.70;36.50;16.80;102784.00;;;;5078840;28;20402;-69
2022/03/20 05:18:51;;;;;;;7.85;6.10;;;17.70;36.50;16.70;102789.00;;;;5078339;28;20048;-69
2022/03/20 05:21:37;;;;;;;8.52;5.82;;;17.60;36.40;16.70;102775.00;;;;5075251;28;20043;-69
2022/03/20 05:24:23;;;;;;;9.05;6.20;;;17.60;36.40;16.70;102775.00;;;;5054490;28;20103;-69
2022/03/20 05:27:12;;;;;;;8.45;6.10;;;17.60;36.40;16.70;102767.00;;;;5057014;28;20044;-69
2022/03/20 05:29:58;;;;;;;8.55;5.85;;;17.80;36.50;16.70;102764.00;;;;5047780;28;20486;-69
2022/03/20 05:32:44;;;;;;;8.27;5.68;;;17.60;36.30;16.70;102763.00;;;;5059351;28;20248;-69
2022/03/20 05:35:31;;;;;;;8.10;6.00;;;17.70;36.40;16.70;102758.00;;;;5068319;28;20494;-69
2022/03/20 05:38:17;;;;;;;7.63;5.75;;;17.60;36.30;16.70;102765.00;;;;5049829;28;20123;-69
2022/03/20 05:44:11;;;;;;;9.70;5.57;;;17.60;36.30;16.70;102761.00;;;;5081836;28;20037;-69
2022/03/20 05:46:58;;;;;;;9.77;6.53;;;17.70;36.30;16.70;102762.00;;;;5082923;28;20268;-69
2022/03/20 05:49:44;;;;;;;10.05;6.22;;;17.60;36.20;16.70;102770.00;;;;5081063;28;20126;-69
2022/03/20 05:52:34;;;;;;;7.68;5.97;;;17.60;36.20;16.70;102762.00;;;;5078989;28;20052;-69
2022/03/20 05:58:01;;;;;;;9.60;6.25;;;17.60;36.20;16.70;102756.00;;;;5076967;28;20040;-69
2022/03/20 05:58:27;;;;;;;8.40;6.40;;;17.60;36.20;16.70;102756.00;;;;5084474;28;20447;-69
2022/03/20 06:01:13;;;;;;;10.80;6.78;;;17.60;36.10;16.70;102757.00;;;;5061383;28;20028;-69
2022/03/20 06:04:03;;;;;;;10.98;7.00;;;17.60;36.20;16.70;102758.00;;;;5064542;28;20051;-69
2022/03/20 06:06:50;;;;;;;11.15;7.22;;;17.60;36.10;16.70;102754.00;;;;5056790;28;20036;-69
2022/03/20 06:09:37;;;;;;;8.50;6.45;;;17.60;36.00;16.70;102742.00;;;;5063206;28;21020;-69
2022/03/20 06:12:23;;;;;;;11.63;6.47;;;17.60;36.10;16.70;102748.00;;;;5043219;28;20053;-69
2022/03/20 06:15:09;;;;;;;9.50;6.38;;;17.60;36.80;16.70;102746.00;;;;5049921;28;20028;-69
2022/03/20 06:17:55;;;;;;;8.35;6.43;;;17.60;36.10;16.70;102735.00;;;;5056362;28;20067;-69
2022/03/20 06:20:41;;;;;;;9.93;6.75;;;17.60;36.00;16.70;102733.00;;;;5063930;28;20044;-69
2022/03/20 06:23:29;;;;;;;10.20;6.88;;;17.60;36.00;16.70;102729.00;;;;5060925;28;20607;-69
2022/03/20 06:26:16;;;;;;;10.85;6.90;;;17.50;35.90;16.70;102727.00;;;;5062785;28;20041;-69
2022/03/20 06:29:05;;;;;;;10.13;6.47;;;17.60;36.00;16.70;102728.00;;;;5045618;28;20033;-69
2022/03/20 06:31:52;;;;;;;10.93;6.68;;;17.60;35.90;16.70;102724.00;;;;5057244;28;20756;-69
2022/03/20 06:34:39;;;;;;;11.80;7.28;;;17.60;35.90;16.70;102734.00;;;;5069671;28;20064;-69
2022/03/20 06:37:25;;;;;;;10.85;7.40;;;17.60;36.00;16.70;102735.00;;;;5055692;28;20339;-69
2022/03/20 06:40:12;;;;;;;11.93;7.70;;;17.60;35.80;16.70;102730.00;;;;5067602;28;20036;-69
2022/03/20 06:42:58;;;;;;;9.50;6.95;;;17.60;35.80;16.70;102724.00;;;;5058266;28;20041;-69
2022/03/20 06:45:46;;;;;;;9.75;6.97;;;17.60;35.80;16.60;102714.00;;;;5045325;28;20064;-69
2022/03/20 06:48:33;;;;;;;;;;;17.60;35.80;16.60;102715.00;;;;5060488;28;20037;-69
2022/03/20 06:51:22;;;;;;;8.77;6.50;;;17.60;36.10;16.60;102695.00;;;;5054154;28;19917;-69
2022/03/20 06:54:08;;;;;;;9.65;6.72;;;17.60;35.80;16.60;102717.00;;;;5055006;28;20037;-69
2022/03/20 06:56:54;;;;;;;10.25;7.00;;;17.50;35.70;16.60;102708.00;;;;5056333;28;20037;-69
2022/03/20 06:59:40;;;;;;;10.63;7.38;;;17.50;35.70;16.60;102699.00;;;;5081406;28;20036;-68
2022/03/20 07:02:27;;;;;;;9.45;6.53;;;17.50;35.80;16.60;102708.00;;;;5064385;28;20045;-68
2022/03/20 07:05:13;;;;;;;11.32;7.53;;;17.50;35.60;16.60;102715.00;;;;5070017;28;20118;-68
2022/03/20 07:08:03;;;;;;;10.10;7.68;;;17.50;35.60;16.60;102721.00;;;;5062385;28;20043;-69
2022/03/20 07:10:49;;;;;;;10.48;7.30;;;17.50;35.60;16.60;102717.00;;;;5060331;28;20123;-69
2022/03/20 07:13:52;;;;;;;10.48;7.30;;;17.60;35.60;16.60;102715.00;;;;5055097;28;20397;-69
2022/03/20 07:16:38;;;;;;;10.30;7.72;;;17.50;35.50;16.60;102709.00;;;;5064697;28;20457;-69
2022/03/20 07:19:24;;;;;;;11.57;7.80;;;17.50;35.50;16.60;102706.00;;;;5064277;28;20464;-69
2022/03/20 07:22:12;;;;;;;12.38;7.20;;;17.50;35.50;16.60;102710.00;;;;5047808;28;20036;-69
2022/03/20 07:29:29;;;;;;;10.32;7.35;;;17.50;35.50;16.60;102705.00;;;;5033116;28;20461;-69
2022/03/20 07:31:08;;;;;;;11.32;7.57;;;17.50;35.40;16.60;102695.00;;;;5049442;28;20052;-69
2022/03/20 07:33:56;;;;;;;10.20;7.20;;;17.50;35.40;16.60;102691.00;;;;5049063;28;20143;-69
2022/03/20 07:36:43;;;;;;;10.88;7.63;;;17.50;35.40;16.60;102678.00;;;;5053653;28;20037;-69
2022/03/20 07:39:30;;;;;;;11.20;7.32;;;17.50;35.40;16.60;102674.00;;;;5056103;28;20479;-69
2022/03/20 07:42:17;;;;;;;9.27;7.07;;;17.50;35.40;16.60;102675.00;;;;5046949;28;20044;-69
2022/03/20 07:45:04;;;;;;;12.93;7.90;;;17.50;35.30;16.60;102677.00;;;;5053903;28;20138;-69
2022/03/20 07:47:50;;;;;;;11.02;7.60;;;17.50;35.30;16.60;102679.00;;;;5049843;28;20449;-68
2022/03/20 07:50:36;;;;;;;10.93;7.85;;;17.50;35.30;16.60;102690.00;;;;5060206;28;20052;-69
2022/03/20 07:53:23;;;;;;;13.05;8.02;;;17.50;35.30;16.60;102689.00;;;;5055247;28;20123;-69
2022/03/20 07:56:10;;;;;;;11.25;7.78;;;17.50;35.20;16.60;102692.00;;;;5058434;28;20029;-69
2022/03/20 07:58:56;;;;;;;11.18;8.02;;;17.50;35.30;16.60;102685.00;;;;5052623;28;20040;-69
2022/03/20 08:01:42;;;;;;;10.25;7.45;;;17.50;35.20;16.60;102688.00;;;;5054907;28;20051;-68
2022/03/20 08:04:28;;;;;;;12.35;7.25;;;17.50;35.20;16.60;102692.00;;;;5039507;28;20052;-69
2022/03/20 08:07:14;;;;;;;11.20;7.75;;;17.60;35.20;16.60;102696.00;;;;5055016;28;20045;-69
2022/03/20 08:10:03;;;;;;;11.80;8.07;;;17.50;35.20;16.60;102690.00;;;;5060779;28;20508;-69
2022/03/20 08:12:49;;;;;;;10.13;7.65;;;17.50;35.10;16.60;102677.00;;;;5067878;28;20033;-69
2022/03/20 08:15:37;;;;;;;12.30;8.30;;;17.60;35.20;16.60;102678.00;;;;5068245;28;20428;-69
2022/03/20 08:18:23;;;;;;;13.95;8.45;;;17.60;35.10;16.60;102676.00;;;;5068462;28;20051;-69
2022/03/20 08:21:13;;;;;;;12.32;8.23;;;17.60;35.10;16.60;102675.00;;;;5059425;28;20042;-69
2022/03/20 08:24:05;;;;;;;13.45;8.38;;;17.60;35.10;16.60;102671.00;;;;5043110;28;20048;-69
2022/03/20 08:26:51;;;;;;;12.50;7.72;;;17.60;35.10;16.70;102676.00;;;;5042474;28;20186;-69
2022/03/20 08:29:37;;;;;;;12.13;8.52;;;17.60;35.10;16.70;102673.00;;;;5063801;28;20115;-69
2022/03/20 08:32:23;;;;;;;12.00;8.13;;;17.60;35.10;16.70;102660.00;;;;5051490;28;20041;-69
2022/03/20 08:35:14;;;;;;;11.35;8.02;;;17.60;35.00;16.70;102656.00;;;;5056188;28;20364;-69
2022/03/20 08:38:00;;;;;;;12.80;8.43;;;17.60;35.00;16.70;102652.00;;;;5061194;28;20672;-69
2022/03/20 08:40:46;;;;;;;11.43;8.25;;;17.60;35.70;16.70;102652.00;;;;5053114;28;20486;-69
2022/03/20 08:43:32;;;;;;;14.18;8.50;;;17.60;35.00;16.70;102656.00;;;;5068698;28;20075;-69
2022/03/20 08:46:18;;;;;;;10.75;7.70;;;17.60;35.00;16.70;102651.00;;;;5048956;28;20057;-69
2022/03/20 08:49:05;;;;;;;11.82;8.23;;;17.60;35.00;16.70;102650.00;;;;5055855;28;20045;-69
2022/03/20 08:51:52;;;;;;;10.43;7.43;;;17.60;35.00;16.70;102652.00;;;;5055738;28;20043;-69
2022/03/20 08:54:38;;;;;;;13.10;8.63;;;17.60;35.00;16.70;102652.00;;;;5041113;28;20074;-69
2022/03/20 08:57:28;;;;;;;12.23;8.50;;;17.60;34.90;16.70;102628.00;;;;5055733;28;20072;-69
2022/03/20 09:00:17;;;;;;;13.73;9.32;;;17.60;34.90;16.70;102618.00;;;;5032282;28;20029;-69
2022/03/20 09:03:03;;;;;;;12.88;8.07;;;17.60;34.90;16.70;102606.00;;;;5053363;28;20044;-69
2022/03/20 09:05:50;;;;;;;13.00;8.55;;;17.60;34.90;16.70;102619.00;;;;5039197;28;20116;-69
2022/03/20 09:08:36;;;;;;;13.60;8.48;;;17.60;34.80;16.70;102612.00;;;;5051918;28;20535;-69
2022/03/20 09:11:22;;;;;;;10.88;8.52;;;17.60;34.80;16.70;102618.00;;;;5056857;28;20380;-71
2022/03/20 09:14:08;;;;;;;15.43;9.82;;;17.60;34.90;16.70;102606.00;;;;5042406;28;20032;-70
2022/03/20 09:19:59;;;;;;;11.40;8.02;;;17.60;34.80;16.70;102598.00;;;;5052029;28;20037;-70
2022/03/20 09:22:45;;;;;;;12.48;8.50;;;17.70;34.80;16.70;102589.00;;;;5054403;28;20045;-70
2022/03/20 09:25:32;;;;;;;12.02;8.35;;;17.70;34.80;16.70;102587.00;;;;5044750;28;20048;-70
2022/03/20 09:28:18;;;;;;;13.13;9.15;;;17.70;34.80;16.70;102570.00;;;;5064758;28;20129;-70
2022/03/20 09:31:08;;;;;;;12.60;8.15;;;17.60;34.70;16.70;102565.00;;;;5058410;28;20049;-70
2022/03/20 09:33:54;;;;;;;11.73;8.82;;;17.70;34.70;16.70;102572.00;;;;5070472;28;20039;-70
2022/03/20 09:36:40;;;;;;;16.13;9.13;;;17.70;35.40;16.70;102561.00;;;;5062145;28;20032;-70
2022/03/20 09:39:26;;;;;;;12.63;8.50;;;17.70;34.70;16.70;102554.00;;;;5065017;28;20441;-70
2022/03/20 09:42:13;;;;;;;13.90;8.90;;;17.70;34.70;16.80;102554.00;;;;5058372;28;20691;-69
2022/03/20 09:44:59;;;;;;;15.40;9.70;;;17.70;34.70;16.70;102553.00;;;;5062383;28;20037;-70
2022/03/20 09:47:45;;;;;;;11.70;8.63;;;17.70;34.60;16.80;102545.00;;;;5051974;28;20040;-70
2022/03/20 09:50:31;;;;;;;12.40;8.50;;;17.70;34.60;16.80;102548.00;;;;5049781;28;20105;-70
2022/03/20 09:53:17;;;;;;;13.63;8.95;;;17.70;34.60;16.80;102537.00;;;;5044133;28;20356;-70
2022/03/20 09:56:06;;;;;;;10.75;8.90;;;17.70;34.70;16.80;102536.00;;;;5058685;28;20497;-70
2022/03/20 09:58:52;;;;;;;13.13;8.98;;;17.70;34.60;16.80;102533.00;;;;5058277;28;20123;-70
2022/03/20 10:01:38;;;;;;;15.18;9.52;;;17.70;34.60;16.80;102524.00;;;;5059129;28;20045;-70
2022/03/20 10:04:24;;;;;;;12.80;9.13;;;17.70;34.50;16.80;102520.00;;;;5062057;28;20040;-70
2022/03/20 10:07:23;;;;;;;16.38;10.15;;;17.70;34.60;16.80;102517.00;;;;5044956;28;20115;-70
2022/03/20 10:10:22;;;;;;;;;;;17.70;34.40;16.70;102517.00;;;;5053840;28;20041;-70
2022/03/20 10:13:12;;;;;;;18.15;9.95;;;17.80;34.90;16.70;102508.00;;;;5061245;28;19970;-70
2022/03/20 10:16:02;;;;;;;17.60;10.50;;;17.70;34.40;16.70;102501.00;;;;5058716;28;20072;-70
2022/03/20 10:18:48;;;;;;;32.30;13.27;;;17.80;34.50;16.70;102507.00;;;;5050983;28;20101;-70
2022/03/20 10:21:45;;;;;;;22.42;12.10;;;17.80;34.50;16.70;102493.00;;;;5056294;28;20036;-71
2022/03/20 10:24:34;;;;;;;23.83;11.25;;;17.80;34.50;16.70;102484.00;;;;5061090;28;20371;-70
2022/03/20 10:27:20;;;;;;;18.77;12.55;;;17.80;34.70;16.70;102502.00;;;;5061959;28;20044;-70
2022/03/20 10:30:09;;;;;;;16.80;11.48;;;17.80;34.80;16.70;102510.00;;;;5054855;28;20052;-70
2022/03/20 10:32:57;;;;;;;21.38;11.77;;;17.80;34.50;16.70;102495.00;;;;5055937;28;20158;-70
2022/03/20 10:36:05;;;;;;;20.60;11.48;;;17.90;34.50;16.70;102487.00;;;;5055733;28;20512;-63
2022/03/20 10:38:51;;;;;;;17.05;11.15;;;17.80;34.50;16.80;102470.00;;;;5035281;28;20043;-69
2022/03/20 10:41:39;;;;;;;17.70;10.30;;;17.80;34.40;16.80;102455.00;;;;5058532;28;20068;-70
2022/03/20 10:44:26;;;;;;;17.67;10.63;;;17.80;34.40;16.80;102438.00;;;;5061046;28;20044;-70
2022/03/20 10:47:16;;;;;;;19.67;11.63;;;17.80;34.50;16.80;102432.00;;;;5041670;28;20041;-70
2022/03/20 10:50:08;;;;;;;21.35;10.85;;;17.80;34.50;16.80;102429.00;;;;5046706;28;20037;-70
2022/03/20 10:53:07;;;;;;;17.10;10.48;;;17.80;34.50;16.80;102448.00;;;;5055942;28;20055;-69
2022/03/20 10:56:06;;;;;;;;;;;17.70;34.30;16.80;102460.00;;;;5045030;28;20040;-62
2022/03/20 10:58:52;;;;;;;15.32;9.98;;;17.80;34.80;16.80;102509.00;;;;5071988;28;20392;-63
2022/03/20 11:01:39;;;;;;;17.42;10.30;;;17.90;34.40;16.80;102515.00;;;;5041923;28;20567;-63
2022/03/20 11:04:25;;;;;;;16.95;10.40;;;17.80;34.30;16.80;102488.00;;;;5047203;28;20036;-62
2022/03/20 11:07:16;;;;;;;15.68;10.05;;;17.90;34.30;16.80;102492.00;;;;5060435;28;20625;-62
2022/03/20 11:10:06;;;;;;;17.40;11.05;;;17.80;34.30;16.80;102485.00;;;;5055685;28;20040;-63
2022/03/20 11:12:54;;;;;;;14.85;11.07;;;17.90;34.30;16.80;102495.00;;;;5061014;28;20071;-63
2022/03/20 11:15:43;;;;;;;16.48;10.18;;;17.90;34.30;16.80;102494.00;;;;5048912;28;20463;-63
2022/03/20 11:18:29;;;;;;;15.32;10.40;;;17.90;34.30;16.80;102479.00;;;;5062470;28;20045;-62
2022/03/20 11:21:15;;;;;;;14.27;9.75;;;17.90;34.30;16.90;102481.00;;;;5027401;28;20040;-62
2022/03/20 11:24:01;;;;;;;14.40;10.35;;;17.90;34.30;16.90;102468.00;;;;5034842;28;20512;-63
2022/03/20 11:26:49;;;;;;;16.48;10.45;;;17.90;34.30;16.90;102459.00;;;;5052266;28;20032;-62
2022/03/20 11:30:03;;;;;;;16.50;10.32;;;17.90;34.30;16.90;102452.00;;;;5038048;28;20105;-63
2022/03/20 11:32:49;;;;;;;14.85;11.00;;;17.90;34.30;16.90;102457.00;;;;5044295;28;20876;-63
2022/03/20 11:35:36;;;;;;;22.20;11.95;;;17.90;34.20;16.90;102454.00;;;;5042123;28;20495;-63
2022/03/20 11:38:26;;;;;;;21.30;10.75;;;17.90;34.20;16.80;102457.00;;;;5041499;28;20511;-63
2022/03/20 11:41:17;;;;;;;17.55;10.15;;;17.90;34.30;16.80;102458.00;;;;5047256;28;20491;-63
2022/03/20 11:44:20;;;;;;;14.45;10.32;;;17.90;34.30;16.90;102453.00;;;;5047063;28;20210;-62
2022/03/20 11:47:15;;;;;;;14.60;10.23;;;17.90;34.20;16.90;102448.00;;;;5047339;28;20075;-63
2022/03/20 11:50:21;;;;;;;16.33;11.27;;;18.00;34.30;16.90;102438.00;;;;5054940;28;20040;-63
2022/03/20 11:53:08;;;;;;;16.42;10.88;;;17.90;34.20;16.90;102446.00;;;;5047476;28;20037;-66
2022/03/20 11:55:54;;;;;;;17.17;11.25;;;17.90;34.20;16.90;102438.00;;;;5053138;28;20044;-63
2022/03/20 11:58:41;;;;;;;16.65;11.07;;;17.90;34.30;16.90;102433.00;;;;5062121;28;20469;-63
2022/03/20 12:01:28;;;;;;;17.17;10.83;;;18.00;34.30;16.90;102436.00;;;;5053412;28;20048;-63
2022/03/20 12:04:14;;;;;;;18.85;11.13;;;17.90;34.30;16.90;102438.00;;;;5044367;28;20072;-63
2022/03/20 12:07:22;;;;;;;17.77;11.48;;;18.00;34.30;16.90;102432.00;;;;5020367;28;20059;-63
2022/03/20 12:10:26;;;;;;;22.43;11.43;;;18.00;34.20;16.90;102413.00;;;;5044411;28;20033;-67
2022/03/20 12:13:41;;;;;;;14.77;10.77;;;18.00;34.20;16.90;102413.00;;;;5059247;28;20048;-63
2022/03/20 12:16:48;;;;;;;14.88;10.32;;;18.00;34.30;16.90;102410.00;;;;5044646;28;20048;-68
2022/03/20 12:19:44;;;;;;;15.40;9.98;;;18.00;34.40;16.90;102398.00;;;;5059328;28;20071;-65
2022/03/20 12:22:30;;;;;;;16.58;10.90;;;18.00;34.30;16.90;102387.00;;;;5047967;28;20060;-64
2022/03/20 12:25:18;;;;;;;16.25;10.65;;;18.10;34.50;16.90;102382.00;;;;5044522;28;20171;-64
2022/03/20 12:28:32;;;;;;;17.05;11.07;;;18.00;34.40;17.00;102387.00;;;;5048535;28;20046;-64
2022/03/20 12:31:27;;;;;;;13.32;10.55;;;18.00;34.40;17.00;102384.00;;;;5049057;28;20608;-64
2022/03/20 12:34:20;;;;;;;14.70;10.13;;;18.00;34.40;17.00;102387.00;;;;5042607;28;20572;-64
2022/03/20 12:37:37;;;;;;;13.77;10.05;;;18.10;34.50;17.00;102384.00;;;;5045690;28;20039;-64
2022/03/20 12:40:33;;;;;;;15.38;10.07;;;18.00;34.40;17.00;102377.00;;;;5056389;28;20449;-64